Bloom, Kansas
Current Conditions -  °F | °C
As of 7:52 AM on Saturday 25 Oct 2014 (Local Time) from KDDC Reporting Station
Clear Clear  
Wind Chill: 56°   Ceiling: Unl
Heat Index: 56°   Visibility: 10mi
Dew Point: 42°   Wind: 6mph
Humidity: 60%   Direction: 240°WSW
Pressure: 30.08"   Gusts: NA
Location:  37.3916°N, 99.8236°W
Report Text: KDDC 251252Z AUTO 24005KT 10SM CLR 13/06 A3008 RMK AO2 SLP168 T01330056
Loading
Personal Weather Stations






























Interactive Weather Map
Tropical Storm Tracking
New forecast layout! Learn more

10-Day Weather Forecast

Advertisements
Track Severe Weather on mobile